Time;durP1;ratioP1;P1;durP2;ratioP2;P2;SDS_P1;SDS_P2;PMS_P1;PMS_P2;Temp;Humidity;BMP_temperature;BMP_pressure;BME280_temperature;BME280_humidity;BME280_pressure;Samples;Min_cycle;Max_cycle;Signal;HPM_P1;HPM_P2
2021/10/02 00:37:07;;;;;;;3.97;1.30;;;;;;;21.16;35.45;100117.66;4899425;29;20052;-81
2021/10/02 00:45:05;;;;;;;5.65;1.60;;;;;;;21.08;35.41;100118.84;4899858;29;20544;-81
2021/10/02 00:47:35;;;;;;;4.40;1.30;;;;;;;21.03;35.51;100103.41;4899352;29;20115;-81
2021/10/02 00:50:03;;;;;;;5.22;1.67;;;;;;;21.06;35.43;100095.06;4899180;29;20024;-80
2021/10/02 00:52:29;;;;;;;4.22;1.67;;;;;;;20.95;35.61;100091.53;4899193;29;20480;-81
2021/10/02 00:54:55;;;;;;;4.10;1.30;;;;;;;20.83;35.90;100077.25;4899173;29;20483;-81
2021/10/02 00:57:21;;;;;;;4.13;1.25;;;;;;;20.78;35.89;100078.44;4898947;29;20043;-80
2021/10/02 00:59:48;;;;;;;6.85;1.88;;;;;;;20.71;35.97;100079.25;4898939;29;20036;-81
2021/10/02 01:02:23;;;;;;;6.25;1.40;;;;;;;20.71;35.76;100072.91;4898992;29;20028;-80
2021/10/02 01:05:16;;;;;;;10.13;1.92;;;;;;;20.66;35.98;100060.22;4899044;29;20380;-81
2021/10/02 01:07:56;;;;;;;6.95;1.67;;;;;;;20.63;36.05;100066.56;4898938;29;20491;-81
2021/10/02 01:10:39;;;;;;;4.28;0.90;;;;;;;20.58;36.11;100055.06;4898934;29;20111;-81
2021/10/02 01:13:24;;;;;;;9.85;2.33;;;;;;;20.68;35.78;100037.59;4898824;29;20053;-81
2021/10/02 01:16:01;;;;;;;6.60;1.65;;;;;;;20.65;35.77;100032.84;4898757;29;20032;-80
2021/10/02 01:18:36;;;;;;;6.32;2.25;;;;;;;20.66;35.72;100031.66;4898686;29;20163;-81
2021/10/02 01:21:27;;;;;;;5.43;1.77;;;;;;;20.62;35.57;100019.75;4898669;29;20483;-81
2021/10/02 01:24:31;;;;;;;5.82;1.50;;;;;;;20.41;35.98;100018.56;4896425;29;20181;-80
2021/10/02 01:27:02;;;;;;;5.97;1.20;;;;;;;20.36;36.01;100016.19;4898512;29;20491;-80
2021/10/02 01:29:33;;;;;;;8.43;1.35;;;;;;;20.32;36.08;100009.84;4898472;29;20048;-80
2021/10/02 01:32:12;;;;;;;3.28;1.05;;;;;;;20.34;36.00;99996.38;4898462;29;20025;-80
2021/10/02 01:37:54;;;;;;;3.42;1.30;;;;;;;20.37;35.86;99978.13;4898403;29;20040;-80
2021/10/02 01:48:40;;;;;;;3.80;1.70;;;;;;;20.31;35.81;99961.09;4898240;29;20156;-80
2021/10/02 01:51:09;;;;;;;8.15;2.22;;;;;;;20.31;35.80;99952.78;4898115;29;20031;-80
2021/10/02 01:53:38;;;;;;;4.20;1.15;;;;;;;20.33;35.70;99950.41;4898112;29;20027;-79
2021/10/02 01:56:05;;;;;;;8.52;1.75;;;;;;;20.27;35.87;99946.44;4897940;29;20087;-80
2021/10/02 01:58:32;;;;;;;5.43;1.13;;;;;;;20.25;35.83;99934.94;4897813;29;20527;-80
2021/10/02 02:00:58;;;;;;;5.57;1.40;;;;;;;20.08;36.01;99935.75;4897970;29;20028;-81
2021/10/02 02:03:26;;;;;;;3.38;1.05;;;;;;;20.04;36.25;99930.22;4897906;29;20099;-80
2021/10/02 02:05:54;;;;;;;4.88;1.50;;;;;;;20.01;36.22;99927.44;4897882;29;20033;-79
2021/10/02 02:08:24;;;;;;;9.30;1.60;;;;;;;20.04;36.06;99918.34;4897829;29;20036;-80
2021/10/02 02:10:51;;;;;;;5.10;1.60;;;;;;;20.07;36.00;99906.44;4897802;29;20111;-80
2021/10/02 02:13:18;;;;;;;4.55;1.55;;;;;;;20.10;36.03;99900.09;4897792;29;20507;-80
2021/10/02 02:15:46;;;;;;;3.13;1.92;;;;;;;20.03;36.21;99897.34;4897833;29;20107;-79
2021/10/02 02:18:16;;;;;;;4.88;1.80;;;;;;;19.94;36.25;99895.75;4897554;29;20028;-80
2021/10/02 02:20:55;;;;;;;4.15;1.27;;;;;;;19.88;36.34;99877.94;4897744;29;20108;-79
2021/10/02 02:23:21;;;;;;;7.72;2.83;;;;;;;19.85;36.33;99873.19;4897679;29;20033;-79
2021/10/02 02:25:47;;;;;;;5.35;1.23;;;;;;;19.77;36.48;99877.13;4897653;29;20475;-78
2021/10/02 02:28:13;;;;;;;6.53;2.13;;;;;;;19.87;36.14;99873.56;4897585;29;20494;-80
2021/10/02 02:30:39;;;;;;;4.07;0.93;;;;;;;19.91;36.24;99873.56;4896838;29;20088;-80
2021/10/02 02:33:06;;;;;;;4.53;1.33;;;;;;;19.89;36.20;99871.22;4913038;29;20028;-80
2021/10/02 02:35:32;;;;;;;3.80;1.30;;;;;;;19.91;36.07;99860.50;4915954;29;20052;-79
2021/10/02 02:37:58;;;;;;;5.50;1.40;;;;;;;19.90;36.09;99850.59;4915066;29;20036;-80
2021/10/02 02:40:24;;;;;;;3.13;0.90;;;;;;;19.86;36.25;99852.56;4916345;29;20028;-79
2021/10/02 02:42:50;;;;;;;3.38;1.27;;;;;;;19.78;36.33;99848.22;4916326;29;20028;-80
2021/10/02 02:45:17;;;;;;;7.68;2.00;;;;;;;19.74;36.44;99844.69;4916341;29;20137;-80
2021/10/02 02:47:53;;;;;;;3.55;1.08;;;;;;;19.72;36.58;99855.34;4916308;29;20064;-80
2021/10/02 02:50:31;;;;;;;6.78;1.38;;;;;;;19.73;36.17;99842.31;4915155;29;20103;-79
2021/10/02 02:53:20;;;;;;;4.78;1.05;;;;;;;19.70;36.35;99827.25;4916215;29;20020;-81
2021/10/02 02:55:54;;;;;;;3.83;1.10;;;;;;;19.68;36.38;99821.31;4915897;29;20091;-80
2021/10/02 02:58:22;;;;;;;6.93;1.77;;;;;;;19.69;36.36;99809.03;4915965;29;20107;-80
2021/10/02 03:01:00;;;;;;;8.05;1.60;;;;;;;19.68;36.41;99811.03;4916236;29;20032;-80
2021/10/02 03:03:29;;;;;;;1.33;0.73;;;;;;;19.65;36.44;99802.72;4916233;29;20499;-79
2021/10/02 03:06:00;;;;;;;3.72;1.00;;;;;;;19.63;36.52;99796.78;4916124;29;20031;-79
2021/10/02 03:08:31;;;;;;;5.53;0.95;;;;;;;19.62;36.44;99797.97;4914875;29;20435;-80
2021/10/02 03:11:01;;;;;;;3.58;1.10;;;;;;;19.56;36.47;99792.00;4916099;29;20035;-80
2021/10/02 03:13:29;;;;;;;7.60;1.52;;;;;;;19.51;36.60;99781.31;4916071;29;20024;-81
2021/10/02 03:15:56;;;;;;;9.60;1.88;;;;;;;19.41;36.80;99780.13;4916086;29;20028;-81
2021/10/02 03:18:25;;;;;;;4.18;1.80;;;;;;;19.44;36.87;99777.75;4915950;29;20032;-80
2021/10/02 03:20:53;;;;;;;8.13;1.88;;;;;;;19.44;36.62;99767.47;4916049;29;20032;-80
2021/10/02 03:23:20;;;;;;;4.43;1.30;;;;;;;19.44;36.80;99759.16;4915995;29;20131;-81
2021/10/02 03:25:47;;;;;;;4.68;1.05;;;;;;;19.40;36.64;99753.59;4916039;29;20447;-80
2021/10/02 03:28:13;;;;;;;5.13;1.65;;;;;;;19.41;36.55;99741.34;4914615;29;20386;-80
2021/10/02 03:30:40;;;;;;;5.20;0.98;;;;;;;19.33;36.61;99739.75;4933722;29;20031;-81
2021/10/02 03:33:06;;;;;;;7.95;1.30;;;;;;;19.26;36.81;99723.13;4934794;29;20103;-81
2021/10/02 03:35:32;;;;;;;8.55;1.45;;;;;;;19.20;36.97;99713.66;4934642;29;20387;-81
2021/10/02 03:37:58;;;;;;;7.43;1.33;;;;;;;19.20;37.21;99701.81;4933813;29;20055;-79
2021/10/02 03:40:24;;;;;;;6.78;1.40;;;;;;;19.20;37.19;99697.06;4917390;29;20099;-80
2021/10/02 03:42:55;;;;;;;7.25;2.05;;;;;;;19.21;37.29;99682.03;4934805;29;20510;-81
2021/10/02 03:45:23;;;;;;;3.42;0.90;;;;;;;19.24;37.26;99669.34;4933387;29;20398;-81
2021/10/02 03:47:48;;;;;;;7.60;1.63;;;;;;;19.35;37.05;99667.38;4937787;29;20110;-81
2021/10/02 03:50:15;;;;;;;5.78;1.00;;;;;;;19.32;37.21;99671.72;4938114;29;20451;-79
2021/10/02 03:52:40;;;;;;;12.48;2.20;;;;;;;19.32;37.24;99660.63;4937967;29;20034;-80
2021/10/02 03:55:08;;;;;;;5.50;1.02;;;;;;;19.32;37.48;99657.06;4925416;29;20111;-80
2021/10/02 03:57:35;;;;;;;7.20;1.17;;;;;;;19.31;37.07;99658.25;4918567;29;20088;-80
2021/10/02 04:00:00;;;;;;;2.80;0.98;;;;;;;19.22;36.99;99650.38;4917313;29;20545;-80
2021/10/02 04:02:26;;;;;;;5.93;1.52;;;;;;;19.28;37.27;99637.69;4918839;29;20046;-81
2021/10/02 04:04:51;;;;;;;4.25;1.33;;;;;;;19.40;37.18;99639.25;4926016;29;20467;-80
2021/10/02 04:07:17;;;;;;;2.42;1.00;;;;;;;19.23;37.73;99617.94;4937094;29;20108;-81
2021/10/02 04:09:43;;;;;;;5.90;1.08;;;;;;;19.25;37.71;99612.78;4910829;29;20021;-81
2021/10/02 04:12:09;;;;;;;7.57;1.42;;;;;;;19.39;37.29;99610.75;4914943;29;20115;-80
2021/10/02 04:14:34;;;;;;;7.60;1.45;;;;;;;19.25;37.63;99605.25;4917637;29;20028;-79
2021/10/02 04:17:01;;;;;;;6.93;1.55;;;;;;;19.29;37.48;99608.03;4914662;29;20036;-81
2021/10/02 04:19:27;;;;;;;9.45;1.52;;;;;;;19.29;37.53;99596.94;4917381;29;20522;-79
2021/10/02 04:21:53;;;;;;;1.85;0.80;;;;;;;19.14;37.99;99587.88;4918170;29;20028;-80
2021/10/02 04:24:19;;;;;;;6.53;2.65;;;;;;;19.27;37.51;99585.47;4918186;29;20049;-81
2021/10/02 04:26:44;;;;;;;3.38;1.42;;;;;;;19.20;37.54;99566.91;4918496;29;20028;-81
2021/10/02 04:29:11;;;;;;;1.90;0.80;;;;;;;19.17;37.67;99562.16;4909827;29;20028;-80
2021/10/02 04:31:36;;;;;;;3.80;1.05;;;;;;;19.14;37.96;99557.44;4918286;29;20494;-80
2021/10/02 04:34:02;;;;;;;6.07;1.60;;;;;;;19.32;37.55;99557.38;4918282;29;20028;-79
2021/10/02 04:36:28;;;;;;;4.25;1.13;;;;;;;19.35;37.44;99560.13;4919893;29;20056;-79
2021/10/02 04:38:54;;;;;;;4.72;1.70;;;;;;;19.33;37.51;99548.66;4935135;29;20035;-81
2021/10/02 04:41:21;;;;;;;5.53;1.50;;;;;;;19.35;37.43;99526.91;4937171;29;20023;-81
2021/10/02 04:43:47;;;;;;;8.65;1.30;;;;;;;19.43;37.02;99527.66;4936948;29;20059;-81
2021/10/02 04:46:14;;;;;;;3.20;1.30;;;;;;;19.40;37.28;99509.84;4937175;29;20474;-80
2021/10/02 04:48:41;;;;;;;7.05;1.15;;;;;;;19.38;37.22;99500.38;4937077;29;20059;-80
2021/10/02 04:51:08;;;;;;;5.50;1.27;;;;;;;19.35;37.25;99493.66;4936957;29;20083;-80
2021/10/02 04:53:35;;;;;;;4.55;1.13;;;;;;;19.38;37.22;99497.59;4936914;29;20052;-80
2021/10/02 04:56:01;;;;;;;4.00;1.10;;;;;;;19.35;37.32;99490.91;4917501;29;20068;-81
2021/10/02 04:58:29;;;;;;;9.20;1.58;;;;;;;19.37;37.25;99494.03;4908170;29;20516;-82
2021/10/02 05:00:55;;;;;;;7.53;1.35;;;;;;;19.45;37.26;99474.63;4905914;29;20159;-81
2021/10/02 05:03:21;;;;;;;6.72;1.20;;;;;;;19.47;37.19;99464.72;4908200;29;20050;-81
2021/10/02 05:05:47;;;;;;;3.50;0.95;;;;;;;19.51;37.15;99462.72;4906083;29;20059;-81
2021/10/02 05:08:13;;;;;;;6.78;1.30;;;;;;;19.49;37.29;99459.53;4910015;29;20067;-81
2021/10/02 05:10:39;;;;;;;4.43;1.20;;;;;;;19.52;37.14;99444.91;4917724;29;20028;-79
2021/10/02 05:13:05;;;;;;;4.03;1.30;;;;;;;19.58;37.01;99440.56;4911368;29;20396;-79
2021/10/02 05:15:31;;;;;;;10.20;1.35;;;;;;;19.56;37.21;99434.56;4898866;29;20029;-80
2021/10/02 05:17:56;;;;;;;6.40;1.38;;;;;;;19.57;37.19;99432.63;4902151;29;20051;-78
2021/10/02 05:20:22;;;;;;;3.70;1.10;;;;;;;19.58;36.96;99415.63;4916141;29;20119;-77
2021/10/02 05:22:47;;;;;;;4.45;1.50;;;;;;;19.59;37.05;99413.63;4913186;29;20476;-79
2021/10/02 05:25:13;;;;;;;2.67;0.95;;;;;;;19.63;37.04;99411.63;4906393;29;20025;-79
2021/10/02 05:27:38;;;;;;;5.00;1.30;;;;;;;19.58;36.97;99406.53;4906567;29;20024;-81
2021/10/02 05:30:04;;;;;;;3.10;1.20;;;;;;;19.59;36.95;99408.09;4907893;29;20123;-81
2021/10/02 05:32:30;;;;;;;5.63;1.10;;;;;;;19.59;36.91;99397.00;4907315;29;20024;-81
2021/10/02 05:34:55;;;;;;;17.15;2.50;;;;;;;19.56;36.83;99397.78;4905313;29;20037;-81
2021/10/02 05:37:23;;;;;;;5.32;1.42;;;;;;;19.49;37.10;99401.38;4904457;29;20061;-81
2021/10/02 05:39:49;;;;;;;5.30;1.02;;;;;;;19.50;37.16;99374.50;4907167;29;20024;-80
2021/10/02 05:42:14;;;;;;;7.93;2.28;;;;;;;19.54;37.02;99364.16;4907267;29;20082;-80
2021/10/02 05:44:40;;;;;;;4.30;1.10;;;;;;;19.59;36.91;99352.69;4905770;29;20033;-78
2021/10/02 05:47:06;;;;;;;3.63;1.60;;;;;;;19.64;36.85;99347.47;4905941;29;20406;-77
2021/10/02 05:49:31;;;;;;;2.47;0.80;;;;;;;19.66;36.91;99352.63;4907516;29;20503;-79
2021/10/02 05:51:57;;;;;;;3.30;1.38;;;;;;;19.56;37.13;99345.13;4916786;29;20028;-76
2021/10/02 05:54:22;;;;;;;8.65;0.93;;;;;;;19.68;36.79;99339.16;4903186;29;20472;-80
2021/10/02 05:56:48;;;;;;;6.45;2.35;;;;;;;19.72;36.73;99334.34;4912220;29;20028;-79
2021/10/02 05:59:16;;;;;;;6.03;1.30;;;;;;;19.61;37.01;99330.88;4902584;29;20048;-78
2021/10/02 06:01:42;;;;;;;5.25;0.98;;;;;;;19.76;36.88;99326.81;4909063;29;20092;-81
2021/10/02 06:04:07;;;;;;;3.88;1.10;;;;;;;19.83;36.75;99323.19;4905024;29;20024;-80
2021/10/02 06:06:33;;;;;;;3.58;0.90;;;;;;;19.87;36.89;99312.84;4906754;29;20470;-79
2021/10/02 06:08:59;;;;;;;3.38;1.00;;;;;;;19.91;36.91;99306.06;4904128;29;20391;-80
2021/10/02 06:11:25;;;;;;;4.07;1.13;;;;;;;19.94;36.90;99308.00;4905331;29;20027;-81
2021/10/02 06:13:50;;;;;;;4.65;1.13;;;;;;;19.86;37.29;99300.97;4906689;29;20115;-78
2021/10/02 06:16:17;;;;;;;2.95;1.30;;;;;;;20.00;37.21;99299.25;4904611;29;20112;-80
2021/10/02 06:18:43;;;;;;;7.30;1.77;;;;;;;20.06;37.16;99279.00;4904749;29;20036;-80
2021/10/02 06:21:11;;;;;;;6.35;1.05;;;;;;;20.06;37.32;99267.91;4906347;29;20094;-81
2021/10/02 06:23:43;;;;;;;5.28;1.30;;;;;;;20.30;37.21;99262.50;4906135;29;20036;-79
2021/10/02 06:26:08;;;;;;;9.43;2.15;;;;;;;20.34;37.40;99257.69;4904903;29;20103;-79
2021/10/02 06:28:34;;;;;;;9.27;2.25;;;;;;;20.48;37.25;99252.78;4905752;29;20111;-81
2021/10/02 06:31:00;;;;;;;5.60;1.40;;;;;;;20.50;37.47;99230.97;4906339;29;20032;-81
2021/10/02 06:33:26;;;;;;;8.23;1.40;;;;;;;20.58;37.29;99228.88;4916242;29;20479;-79
2021/10/02 06:35:52;;;;;;;9.50;1.90;;;;;;;20.54;37.94;99228.13;4915914;29;20128;-79
2021/10/02 06:38:18;;;;;;;6.57;1.58;;;;;;;20.79;37.49;99227.81;4915988;29;20115;-80
2021/10/02 06:40:43;;;;;;;5.43;1.75;;;;;;;20.81;37.82;99210.72;4915894;29;20523;-80
2021/10/02 06:43:10;;;;;;;12.73;1.70;;;;;;;20.92;37.68;99203.00;4915980;29;20028;-81
2021/10/02 06:45:36;;;;;;;5.63;1.77;;;;;;;20.85;38.11;99206.69;4912319;29;20037;-81
2021/10/02 06:48:03;;;;;;;8.35;1.40;;;;;;;20.90;38.18;99200.66;4904167;29;20061;-79
2021/10/02 06:50:28;;;;;;;5.53;1.20;;;;;;;20.95;38.32;99191.09;4906189;29;20107;-81
2021/10/02 06:52:55;;;;;;;5.60;1.27;;;;;;;20.99;38.32;99178.69;4904640;29;20103;-80
2021/10/02 06:55:21;;;;;;;7.03;1.63;;;;;;;21.04;38.46;99181.00;4902267;29;20045;-80
2021/10/02 06:57:47;;;;;;;6.93;1.67;;;;;;;21.15;38.16;99166.16;4896679;29;20054;-80
2021/10/02 07:00:13;;;;;;;6.13;1.25;;;;;;;21.22;38.23;99161.25;4897221;29;20040;-78
2021/10/02 07:02:43;;;;;;;5.32;1.80;;;;;;;21.22;38.39;99166.03;4899642;29;20035;-82
2021/10/02 07:05:11;;;;;;;9.40;1.75;;;;;;;21.23;38.21;99142.59;4903950;29;20061;-83
2021/10/02 07:07:37;;;;;;;3.72;1.30;;;;;;;21.27;38.54;99137.78;4898839;29;20041;-78
2021/10/02 07:10:04;;;;;;;7.07;1.60;;;;;;;21.27;38.61;99135.81;4904212;29;20483;-83
2021/10/02 07:12:30;;;;;;;6.25;1.92;;;;;;;21.27;38.78;99124.69;4909659;29;20028;-82
2021/10/02 07:14:55;;;;;;;11.63;2.45;;;;;;;21.30;38.77;99123.06;4896754;29;20428;-81
2021/10/02 07:17:21;;;;;;;6.25;2.00;;;;;;;21.25;38.93;99101.31;4895485;29;20033;-80
2021/10/02 07:19:46;;;;;;;5.65;1.45;;;;;;;21.39;38.60;99098.31;4896709;29;20416;-82
2021/10/02 07:22:12;;;;;;;7.35;1.38;;;;;;;21.41;38.81;99095.88;4899509;29;20039;-81
2021/10/02 07:24:37;;;;;;;7.50;2.13;;;;;;;21.47;38.88;99085.06;4900917;29;20033;-83
2021/10/02 07:27:03;;;;;;;8.70;1.50;;;;;;;21.42;39.26;99083.56;4900723;29;20123;-82
2021/10/02 07:29:29;;;;;;;6.85;1.65;;;;;;;21.33;39.49;99078.56;4900603;29;20044;-82
2021/10/02 07:31:54;;;;;;;10.30;1.63;;;;;;;21.45;39.14;99068.00;4900474;29;20035;-82
2021/10/02 07:34:20;;;;;;;7.97;1.77;;;;;;;21.56;39.08;99049.94;4900501;29;20033;-81
2021/10/02 07:36:46;;;;;;;7.50;1.90;;;;;;;21.50;39.38;99051.63;4907979;29;20042;-78
2021/10/02 07:39:12;;;;;;;8.73;1.60;;;;;;;21.60;39.33;99049.84;4937319;29;20035;-80
2021/10/02 07:41:44;;;;;;;9.68;2.25;;;;;;;21.55;39.40;99048.38;4938317;29;20083;-79
2021/10/02 07:44:11;;;;;;;8.98;2.75;;;;;;;21.42;39.94;99058.53;4936699;29;20031;-88
2021/10/02 07:46:42;;;;;;;13.35;3.08;;;;;;;21.45;40.15;99043.78;4919735;29;20040;-79
2021/10/02 07:49:09;;;;;;;8.23;1.60;;;;;;;21.48;40.11;99028.28;4912236;29;20035;-78
2021/10/02 07:51:35;;;;;;;11.85;2.35;;;;;;;21.54;39.88;99032.91;4915995;29;20031;-75
2021/10/02 07:54:03;;;;;;;6.20;1.70;;;;;;;21.54;40.19;99023.78;4913082;29;20052;-75
2021/10/02 07:56:29;;;;;;;7.07;1.83;;;;;;;21.55;40.21;99020.56;4900159;29;20435;-81
2021/10/02 07:58:59;;;;;;;7.75;2.05;;;;;;;21.65;40.21;99015.22;4898426;29;20081;-82
2021/10/02 08:01:28;;;;;;;12.93;3.13;;;;;;;21.74;40.21;99016.19;4898382;29;20036;-81
2021/10/02 08:03:55;;;;;;;6.77;2.17;;;;;;;21.94;40.01;99005.03;4898793;29;20083;-78
2021/10/02 08:06:21;;;;;;;6.72;1.52;;;;;;;22.10;39.85;98998.75;4898753;29;20071;-78
2021/10/02 08:08:47;;;;;;;3.47;1.17;;;;;;;22.19;39.56;99006.50;4898968;29;20080;-76
2021/10/02 08:11:13;;;;;;;6.80;1.83;;;;;;;22.25;39.81;99001.97;4898266;29;20550;-82
2021/10/02 08:13:38;;;;;;;7.00;1.88;;;;;;;22.26;39.79;98993.19;4896650;29;20056;-80
2021/10/02 08:16:05;;;;;;;3.25;1.08;;;;;;;22.24;39.85;98984.50;4901120;29;20525;-84
2021/10/02 08:18:37;;;;;;;4.10;1.17;;;;;;;22.33;39.73;98975.56;4910396;29;20068;-88
2021/10/02 08:21:04;;;;;;;6.40;2.25;;;;;;;22.39;39.99;98971.81;4910230;29;20027;-81
2021/10/02 08:23:37;;;;;;;5.15;1.73;;;;;;;22.49;39.90;98963.63;4911258;29;20032;-84
2021/10/02 08:26:04;;;;;;;8.98;1.10;;;;;;;22.61;39.65;98972.06;4905522;29;20439;-81
2021/10/02 08:28:33;;;;;;;6.15;1.20;;;;;;;22.70;39.73;98958.28;4906098;29;20080;-78
2021/10/02 08:31:00;;;;;;;6.85;1.40;;;;;;;22.65;40.12;98953.25;4910821;29;20387;-73
2021/10/02 08:33:27;;;;;;;3.90;0.90;;;;;;;22.83;40.00;98950.00;4912710;29;20040;-81
2021/10/02 08:35:53;;;;;;;6.95;1.65;;;;;;;22.96;39.92;98950.06;4905739;29;20115;-81
2021/10/02 08:38:19;;;;;;;3.10;0.90;;;;;;;23.17;39.55;98941.13;4910197;29;20139;-82
2021/10/02 08:40:45;;;;;;;3.58;1.02;;;;;;;23.23;39.67;98946.94;4905979;29;20026;-78
2021/10/02 08:43:14;;;;;;;4.88;1.40;;;;;;;23.29;39.10;98933.25;4911651;29;20128;-82
2021/10/02 08:45:41;;;;;;;7.43;1.60;;;;;;;23.42;38.85;98925.66;4912788;29;20036;-75
2021/10/02 08:48:12;;;;;;;7.82;2.03;;;;;;;23.42;39.25;98931.25;4911796;29;20051;-76
2021/10/02 08:50:40;;;;;;;6.32;1.10;;;;;;;23.69;38.98;98926.06;4909976;29;20095;-77
2021/10/02 08:53:06;;;;;;;2.47;1.02;;;;;;;23.74;38.65;98924.75;4910676;29;20036;-85
2021/10/02 08:55:34;;;;;;;4.57;1.05;;;;;;;23.79;38.13;98929.75;4903620;29;20058;-79
2021/10/02 08:58:01;;;;;;;3.65;1.02;;;;;;;23.90;38.26;98918.25;4903098;29;20124;-77
2021/10/02 09:00:26;;;;;;;6.07;1.35;;;;;;;24.03;37.88;98919.00;4906516;29;20038;-72
2021/10/02 09:02:53;;;;;;;2.63;0.85;;;;;;;24.03;37.88;98919.00;4906524;29;20044;-87
2021/10/02 09:05:21;;;;;;;2.53;0.77;;;;;;;24.09;37.91;98912.41;4905694;29;20044;-82
2021/10/02 09:07:53;;;;;;;1.73;0.80;;;;;;;24.08;37.62;98904.50;4902476;29;20519;-79
2021/10/02 09:10:20;;;;;;;5.28;1.50;;;;;;;24.26;37.48;98904.72;4900561;29;20020;-77
2021/10/02 09:12:47;;;;;;;3.88;1.05;;;;;;;24.05;37.27;98883.88;4905056;29;20084;-81
2021/10/02 09:15:14;;;;;;;7.20;1.58;;;;;;;24.08;37.42;98898.94;4906051;29;20047;-78
2021/10/02 09:17:41;;;;;;;5.57;1.02;;;;;;;23.95;37.13;98895.38;4907985;29;20618;-89
2021/10/02 09:20:09;;;;;;;8.88;1.40;;;;;;;23.93;37.03;98886.69;4907254;29;20032;-81
2021/10/02 09:22:35;;;;;;;4.18;0.80;;;;;;;24.02;36.82;98889.56;4912322;29;20033;-82
2021/10/02 09:25:04;;;;;;;3.88;1.48;;;;;;;23.91;36.79;98883.56;4900586;29;20050;-83
2021/10/02 09:27:31;;;;;;;3.72;1.30;;;;;;;23.78;37.12;98886.34;4908912;29;20029;-84
2021/10/02 09:30:10;;;;;;;3.13;0.98;;;;;;;23.72;37.07;98877.75;4905065;29;20032;-89
2021/10/02 09:32:45;;;;;;;3.10;1.00;;;;;;;23.72;37.17;98869.41;4906754;29;20060;-82
2021/10/02 09:35:15;;;;;;;3.03;0.88;;;;;;;23.55;37.34;98862.34;4917656;29;20043;-84
2021/10/02 09:37:44;;;;;;;5.03;1.42;;;;;;;23.64;36.92;98858.91;4906289;29;20123;-83
2021/10/02 09:40:19;;;;;;;4.85;1.13;;;;;;;23.56;37.25;98857.56;4888401;29;20052;-84
2021/10/02 09:42:50;;;;;;;6.45;1.15;;;;;;;23.63;37.40;98844.19;4884295;29;20033;-78
2021/10/02 09:45:28;;;;;;;4.65;1.15;;;;;;;23.65;37.29;98838.19;4900720;29;20080;-81
2021/10/02 09:48:00;;;;;;;2.78;1.05;;;;;;;23.62;37.23;98839.88;4901970;29;20208;-82
2021/10/02 09:50:33;;;;;;;4.82;1.20;;;;;;;23.50;37.24;98832.25;4901597;29;20024;-75
2021/10/02 09:53:08;;;;;;;4.95;1.25;;;;;;;23.48;37.17;98829.91;4902454;29;20131;-82
2021/10/02 09:55:37;;;;;;;7.28;1.33;;;;;;;23.60;37.17;98816.44;4896308;29;20067;-79
2021/10/02 09:58:08;;;;;;;2.05;0.82;;;;;;;23.51;37.16;98805.97;4887681;29;20060;-79
2021/10/02 10:00:40;;;;;;;4.85;1.10;;;;;;;23.69;36.77;98811.75;4902569;29;20190;-84
2021/10/02 10:03:12;;;;;;;4.10;1.30;;;;;;;23.67;36.88;98808.63;4902801;29;20067;-83
2021/10/02 10:05:41;;;;;;;4.82;1.45;;;;;;;23.57;37.01;98808.94;4889185;29;20380;-82
2021/10/02 10:08:11;;;;;;;11.98;1.70;;;;;;;23.93;36.47;98798.19;4902000;29;20092;-77
2021/10/02 10:10:41;;;;;;;3.30;1.25;;;;;;;23.99;36.71;98812.38;4900922;29;20043;-80
2021/10/02 10:13:11;;;;;;;4.65;1.27;;;;;;;24.07;36.53;98799.72;4883887;29;20025;-77
2021/10/02 10:15:40;;;;;;;10.60;1.90;;;;;;;23.97;36.91;98792.50;4895126;29;20028;-79
2021/10/02 10:18:08;;;;;;;9.85;1.60;;;;;;;24.13;36.57;98791.56;4883667;29;20045;-76
2021/10/02 10:20:51;;;;;;;11.93;3.13;;;;;;;23.77;37.30;98779.63;4907489;29;20112;-77
2021/10/02 10:23:36;;;;;;;9.10;1.63;;;;;;;24.15;36.51;98780.72;4916529;29;20047;-77
2021/10/02 10:26:07;;;;;;;4.88;1.42;;;;;;;24.33;35.80;98775.31;4886079;29;20531;-73
2021/10/02 10:28:36;;;;;;;5.05;1.23;;;;;;;24.25;35.81;98768.41;4881037;29;20060;-73
2021/10/02 10:31:15;;;;;;;6.03;1.38;;;;;;;24.08;35.92;98773.38;4891045;29;20039;-78
2021/10/02 10:33:46;;;;;;;7.25;1.27;;;;;;;24.34;35.18;98768.53;4886158;29;20059;-72
2021/10/02 10:36:14;;;;;;;6.95;1.52;;;;;;;24.37;35.02;98770.41;4889275;29;20902;-73
2021/10/02 10:38:43;;;;;;;11.88;2.38;;;;;;;24.61;35.18;98767.91;4885387;29;20040;-73
2021/10/02 10:41:10;;;;;;;5.60;1.50;;;;;;;23.97;35.47;98753.47;4883082;29;20731;-85
2021/10/02 10:43:37;;;;;;;5.15;1.50;;;;;;;24.32;34.80;98770.94;4886986;29;20095;-85
2021/10/02 10:46:05;;;;;;;7.25;2.03;;;;;;;23.98;34.96;98766.19;4887123;29;20571;-75
2021/10/02 10:48:31;;;;;;;3.75;1.17;;;;;;;24.15;34.61;98753.59;4889816;29;20054;-87
2021/10/02 10:51:03;;;;;;;3.42;1.30;;;;;;;24.01;35.32;98768.06;4887513;29;20718;-88
2021/10/02 10:53:41;;;;;;;7.25;2.10;;;;;;;24.30;34.69;98751.88;4888013;29;20128;-76
2021/10/02 10:56:10;;;;;;;9.15;1.70;;;;;;;24.15;35.08;98750.03;4887405;29;20032;-78
2021/10/02 10:58:36;;;;;;;8.20;2.28;;;;;;;24.37;34.89;98739.69;4890430;29;20051;-79
2021/10/02 11:01:04;;;;;;;4.53;1.55;;;;;;;24.06;35.18;98743.16;4891845;29;20048;-74
2021/10/02 11:03:34;;;;;;;4.93;1.40;;;;;;;23.97;35.44;98739.53;4890091;29;20058;-81
2021/10/02 11:06:00;;;;;;;5.85;1.63;;;;;;;24.30;34.71;98725.97;4889044;29;20039;-79
2021/10/02 11:08:48;;;;;;;14.40;2.78;;;;;;;24.44;34.92;98727.50;4886932;29;20101;-77
2021/10/02 11:11:15;;;;;;;4.25;1.17;;;;;;;24.35;35.03;98733.78;4888379;29;20123;-75
2021/10/02 11:13:47;;;;;;;2.53;1.02;;;;;;;23.78;35.66;98736.56;4891713;29;20044;-77
2021/10/02 11:16:36;;;;;;;1.80;0.95;;;;;;;24.01;34.95;98729.00;4887596;29;20068;-76
2021/10/02 11:19:36;;;;;;;4.65;1.83;;;;;;;23.35;35.32;98730.81;4891797;29;20032;-79
2021/10/02 11:22:35;;;;;;;5.65;1.42;;;;;;;23.89;34.85;98729.84;4894118;29;20523;-82
2021/10/02 11:25:02;;;;;;;4.05;1.52;;;;;;;23.60;35.25;98725.25;4885970;29;20217;-74
2021/10/02 11:27:28;;;;;;;3.45;1.00;;;;;;;23.73;35.17;98720.41;4889548;29;20041;-73
2021/10/02 11:29:54;;;;;;;4.38;1.67;;;;;;;23.47;36.83;98739.16;4890547;29;20546;-76
2021/10/02 11:32:29;;;;;;;1.95;0.80;;;;;;;23.46;36.79;98743.19;4903344;29;20043;-77
2021/10/02 11:35:16;;;;;;;2.53;0.80;;;;;;;23.20;37.48;98741.63;4890464;29;20020;-83
2021/10/02 11:38:07;;;;;;;2.88;0.98;;;;;;;23.44;37.04;98733.72;4888787;29;20036;-74
2021/10/02 11:40:35;;;;;;;2.17;0.93;;;;;;;23.19;37.27;98740.84;4889710;29;20032;-78
2021/10/02 11:43:23;;;;;;;1.60;0.90;;;;;;;23.31;36.75;98742.09;4894239;29;20036;-89
2021/10/02 11:45:49;;;;;;;2.65;0.80;;;;;;;23.06;37.06;98731.75;4892491;29;20452;-81
2021/10/02 11:48:19;;;;;;;2.08;0.70;;;;;;;23.46;36.67;98723.69;4890719;29;20060;-74
2021/10/02 11:50:47;;;;;;;9.65;1.85;;;;;;;23.42;36.17;98727.78;4890917;29;20140;-75
2021/10/02 11:53:17;;;;;;;4.63;1.38;;;;;;;23.78;35.61;98717.03;4889776;29;20035;-81
2021/10/02 11:55:44;;;;;;;23.75;3.90;;;;;;;23.78;35.61;98719.81;4889432;29;20031;-81
2021/10/02 11:58:12;;;;;;;9.10;2.25;;;;;;;24.11;35.47;98702.75;4888610;29;20057;-75
2021/10/02 12:00:52;;;;;;;2.75;0.88;;;;;;;24.19;35.54;98704.06;4893318;29;20051;-84
2021/10/02 12:03:29;;;;;;;;;;;;;;;23.86;36.07;98705.63;4894903;29;20040;-77
2021/10/02 12:05:57;;;;;;;3.65;0.60;;;;;;;23.93;35.71;98697.00;4890494;29;20421;-76
2021/10/02 12:08:26;;;;;;;3.03;0.93;;;;;;;23.79;35.23;98692.72;4888891;29;20047;-81
2021/10/02 12:11:07;;;;;;;3.85;1.48;;;;;;;24.15;34.90;98692.22;4888807;29;20186;-79
2021/10/02 12:13:45;;;;;;;5.88;1.63;;;;;;;24.20;35.06;98694.44;4892321;29;20086;-82
2021/10/02 12:16:17;;;;;;;10.55;2.08;;;;;;;24.50;35.00;98687.38;4892859;29;20024;-79
2021/10/02 12:19:05;;;;;;;12.30;3.10;;;;;;;24.69;34.54;98687.44;4894740;29;20040;-81
2021/10/02 12:21:43;;;;;;;12.27;2.20;;;;;;;24.70;34.47;98680.63;4891435;29;20043;-80
2021/10/02 12:24:12;;;;;;;3.53;1.00;;;;;;;24.76;34.08;98681.59;4885718;29;20103;-85
2021/10/02 12:26:45;;;;;;;2.70;0.77;;;;;;;24.63;33.74;98684.47;4892358;29;20028;-83
2021/10/02 12:29:13;;;;;;;5.93;1.10;;;;;;;24.35;33.61;98686.34;4893555;29;20507;-81
2021/10/02 12:32:09;;;;;;;2.15;0.88;;;;;;;24.42;34.02;98682.50;4889100;29;20387;-84
2021/10/02 12:34:45;;;;;;;3.35;0.80;;;;;;;24.37;33.43;98667.13;4877218;29;20040;-76